Time;durP1;ratioP1;P1;durP2;ratioP2;P2;SDS_P1;SDS_P2;PMS_P1;PMS_P2;Temp;Humidity;BMP_temperature;BMP_pressure;BME280_temperature;BME280_humidity;BME280_pressure;Samples;Min_cycle;Max_cycle;Signal;HPM_P1;HPM_P2
2022/08/15 00:00:56;;;;;;;;;;;27.40;40.00;;;;;;4945169;29;19978;-91
2022/08/15 00:03:25;;;;;;;;;;;27.40;40.10;;;;;;4926159;29;19926;-90
2022/08/15 00:05:52;;;;;;;;;;;27.30;40.10;;;;;;4946060;29;19974;-92
2022/08/15 00:08:18;;;;;;;;;;;27.30;40.40;;;;;;4926305;29;19957;-91
2022/08/15 00:10:44;;;;;;;;;;;27.30;40.60;;;;;;4938589;29;19942;-91
2022/08/15 00:13:15;;;;;;;;;;;27.30;40.70;;;;;;4943115;29;20010;-93
2022/08/15 00:15:41;;;;;;;;;;;27.30;40.90;;;;;;4927265;29;19916;-92
2022/08/15 00:18:06;;;;;;;;;;;27.40;41.00;;;;;;4941940;29;19921;-89
2022/08/15 00:20:37;;;;;;;;;;;27.40;41.30;;;;;;4939893;29;19915;-91
2022/08/15 00:23:38;;;;;;;;;;;27.50;41.20;;;;;;4925982;29;19922;-90
2022/08/15 00:26:03;;;;;;;;;;;27.50;41.20;;;;;;4924213;29;19922;-91
2022/08/15 00:28:29;;;;;;;;;;;27.60;41.20;;;;;;4942230;29;19982;-91
2022/08/15 00:30:55;;;;;;;;;;;27.70;41.20;;;;;;4941283;29;20252;-90
2022/08/15 00:33:21;;;;;;;;;;;27.70;41.10;;;;;;4925537;29;19933;-91
2022/08/15 00:35:48;;;;;;;;;;;27.80;41.10;;;;;;4924946;29;19915;-90
2022/08/15 00:38:24;;;;;;;;;;;27.90;41.10;;;;;;4923111;29;20427;-91
2022/08/15 00:46:49;;;;;;;;;;;28.20;40.90;;;;;;4939559;29;19926;-91
2022/08/15 00:49:15;;;;;;;;;;;28.30;40.70;;;;;;4940177;29;20454;-90
2022/08/15 00:51:50;;;;;;;;;;;28.30;40.50;;;;;;4924350;29;19983;-90
2022/08/15 00:54:15;;;;;;;;;;;28.40;40.30;;;;;;4933573;29;20005;-90
2022/08/15 00:56:47;;;;;;;;;;;28.50;40.40;;;;;;4939444;29;19961;-90
2022/08/15 00:59:13;;;;;;;;;;;28.50;40.40;;;;;;4941493;29;19952;-91
2022/08/15 01:01:39;;;;;;;;;;;28.50;40.30;;;;;;4925340;29;19950;-90
2022/08/15 01:04:07;;;;;;;;;;;28.50;40.20;;;;;;4941770;29;19923;-90
2022/08/15 01:06:36;;;;;;;;;;;28.60;40.00;;;;;;4941545;29;19922;-91
2022/08/15 01:09:03;;;;;;;;;;;28.60;39.90;;;;;;4932933;29;19926;-91
2022/08/15 01:11:31;;;;;;;;;;;28.60;39.70;;;;;;4937476;29;19922;-90
2022/08/15 01:13:59;;;;;;;;;;;28.70;39.60;;;;;;4934738;29;19923;-90
2022/08/15 01:16:25;;;;;;;;;;;28.70;39.40;;;;;;4937585;29;19929;-90
2022/08/15 01:18:51;;;;;;;;;;;28.70;39.30;;;;;;4934746;29;20392;-90
2022/08/15 01:21:21;;;;;;;;;;;28.80;39.30;;;;;;4935086;29;19915;-91
2022/08/15 01:23:56;;;;;;;;;;;28.80;39.20;;;;;;4937786;29;19945;-90
2022/08/15 01:26:23;;;;;;;;;;;28.80;39.00;;;;;;4938043;29;19982;-90
2022/08/15 01:29:09;;;;;;;;;;;28.80;38.90;;;;;;4921774;29;19919;-90
2022/08/15 01:31:36;;;;;;;;;;;28.90;38.80;;;;;;4874359;29;20374;-91
2022/08/15 01:34:11;;;;;;;;;;;28.90;38.80;;;;;;4937627;29;19918;-90
2022/08/15 01:36:43;;;;;;;;;;;28.90;38.70;;;;;;4934865;29;19914;-90
2022/08/15 01:39:11;;;;;;;;;;;28.90;38.60;;;;;;4936993;29;19964;-91
2022/08/15 01:41:39;;;;;;;;;;;29.00;38.60;;;;;;4916576;29;19926;-91
2022/08/15 01:44:15;;;;;;;;;;;29.00;38.50;;;;;;4939418;29;20264;-91
2022/08/15 01:46:42;;;;;;;;;;;29.00;38.40;;;;;;4936696;29;19927;-91
2022/08/15 01:49:15;;;;;;;;;;;29.10;38.40;;;;;;4924439;29;20385;-91
2022/08/15 01:51:41;;;;;;;;;;;29.10;38.30;;;;;;4940867;29;19915;-91
2022/08/15 01:54:09;;;;;;;;;;;29.10;38.20;;;;;;4923531;29;19925;-91
2022/08/15 01:56:36;;;;;;;;;;;29.00;40.30;;;;;;4923684;29;19918;-90
2022/08/15 01:59:03;;;;;;;;;;;28.50;45.70;;;;;;4938901;29;19919;-89
2022/08/15 02:01:43;;;;;;;;;;;28.10;49.40;;;;;;4935019;29;19919;-88
2022/08/15 02:04:10;;;;;;;;;;;27.60;51.50;;;;;;4936875;29;20379;-88
2022/08/15 02:06:35;;;;;;;;;;;27.20;53.40;;;;;;4936950;29;19997;-89
2022/08/15 02:09:02;;;;;;;;;;;27.20;54.80;;;;;;4936363;29;19964;-88
2022/08/15 02:11:29;;;;;;;;;;;27.10;55.90;;;;;;4936027;29;19914;-89
2022/08/15 02:13:56;;;;;;;;;;;27.10;56.80;;;;;;4921153;29;19923;-89
2022/08/15 02:16:23;;;;;;;;;;;27.10;57.30;;;;;;4937526;29;19903;-89
2022/08/15 02:18:49;;;;;;;;;;;27.10;57.90;;;;;;4938443;29;19918;-89
2022/08/15 02:21:14;;;;;;;;;;;27.10;58.50;;;;;;4919944;29;20315;-89
2022/08/15 02:23:40;;;;;;;;;;;27.10;58.70;;;;;;4915191;29;19959;-88
2022/08/15 02:26:08;;;;;;;;;;;27.10;58.90;;;;;;4931980;29;19919;-89
2022/08/15 02:28:42;;;;;;;;;;;27.10;58.90;;;;;;4916379;29;20282;-89
2022/08/15 02:31:15;;;;;;;;;;;27.10;59.20;;;;;;4937513;29;19946;-89
2022/08/15 02:33:43;;;;;;;;;;;27.20;59.60;;;;;;4933068;29;19927;-89
2022/08/15 02:36:09;;;;;;;;;;;27.20;60.00;;;;;;4939595;29;19965;-89
2022/08/15 02:38:34;;;;;;;;;;;27.20;60.30;;;;;;4939449;29;20383;-89
2022/08/15 02:41:00;;;;;;;;;;;27.10;60.40;;;;;;4936067;29;19914;-90
2022/08/15 02:43:27;;;;;;;;;;;27.10;60.40;;;;;;4929970;29;19962;-90
2022/08/15 02:45:53;;;;;;;;;;;27.10;60.50;;;;;;4936813;29;19961;-90
2022/08/15 02:48:18;;;;;;;;;;;27.10;60.10;;;;;;4935277;29;19923;-90
2022/08/15 02:50:45;;;;;;;;;;;27.10;60.20;;;;;;4939179;29;19918;-90
2022/08/15 02:53:13;;;;;;;;;;;27.10;60.20;;;;;;4939439;29;19968;-89
2022/08/15 02:55:39;;;;;;;;;;;27.10;60.30;;;;;;4940020;29;20012;-90
2022/08/15 02:58:05;;;;;;;;;;;27.10;60.60;;;;;;4922278;29;19926;-90
2022/08/15 03:00:31;;;;;;;;;;;27.10;60.50;;;;;;4940261;29;20348;-90
2022/08/15 03:02:58;;;;;;;;;;;27.00;60.30;;;;;;4940269;29;20443;-89
2022/08/15 03:05:24;;;;;;;;;;;26.80;60.20;;;;;;4940079;29;19959;-89
2022/08/15 03:07:50;;;;;;;;;;;26.50;60.40;;;;;;4943532;29;19919;-89
2022/08/15 03:10:15;;;;;;;;;;;26.40;60.60;;;;;;4943975;29;20026;-90
2022/08/15 03:12:53;;;;;;;;;;;26.20;60.20;;;;;;4942226;29;19919;-90
2022/08/15 03:15:20;;;;;;;;;;;26.20;60.30;;;;;;4925702;29;19914;-90
2022/08/15 03:17:45;;;;;;;;;;;26.20;60.40;;;;;;4942632;28;19969;-90
2022/08/15 03:20:11;;;;;;;;;;;26.20;60.80;;;;;;4925982;29;19915;-90
2022/08/15 03:22:44;;;;;;;;;;;26.20;61.00;;;;;;4941291;29;19923;-90
2022/08/15 03:25:10;;;;;;;;;;;26.20;61.20;;;;;;4922297;29;19919;-90
2022/08/15 03:27:35;;;;;;;;;;;26.30;61.10;;;;;;4940474;29;19946;-86
2022/08/15 03:30:01;;;;;;;;;;;26.30;60.80;;;;;;4938186;29;19950;-87
2022/08/15 03:32:29;;;;;;;;;;;26.40;61.20;;;;;;4922518;29;19918;-87
2022/08/15 03:34:54;;;;;;;;;;;26.30;61.20;;;;;;4930665;29;19943;-87
2022/08/15 03:37:20;;;;;;;;;;;26.50;61.10;;;;;;4939111;29;20017;-87
2022/08/15 03:39:45;;;;;;;;;;;26.50;61.30;;;;;;4929609;29;19915;-87
2022/08/15 03:42:10;;;;;;;;;;;26.50;61.60;;;;;;4931206;29;19922;-87
2022/08/15 03:44:36;;;;;;;;;;;26.60;61.50;;;;;;4922252;29;19954;-87
2022/08/15 03:47:01;;;;;;;;;;;26.60;61.50;;;;;;4937328;29;19939;-87
2022/08/15 03:49:32;;;;;;;;;;;26.60;61.60;;;;;;4936468;29;19918;-87
2022/08/15 03:52:03;;;;;;;;;;;26.70;61.00;;;;;;4922334;29;19930;-87
2022/08/15 03:54:29;;;;;;;;;;;26.70;61.10;;;;;;4922686;29;20021;-87
2022/08/15 03:56:54;;;;;;;;;;;26.70;61.30;;;;;;4938788;29;19962;-88
2022/08/15 03:59:20;;;;;;;;;;;26.70;61.30;;;;;;4937966;29;19943;-88
2022/08/15 04:01:45;;;;;;;;;;;26.70;61.20;;;;;;4939292;29;19962;-88
2022/08/15 04:04:11;;;;;;;;;;;26.80;61.30;;;;;;4940610;29;19919;-88
2022/08/15 04:06:40;;;;;;;;;;;26.80;61.30;;;;;;4940393;29;19922;-87
2022/08/15 04:09:06;;;;;;;;;;;26.80;61.10;;;;;;4940850;29;19921;-88
2022/08/15 04:11:31;;;;;;;;;;;26.80;60.80;;;;;;4940703;29;19921;-88
2022/08/15 04:13:57;;;;;;;;;;;26.80;60.40;;;;;;4939327;29;19974;-88
2022/08/15 04:16:23;;;;;;;;;;;26.80;59.90;;;;;;4940333;29;19921;-87
2022/08/15 04:18:49;;;;;;;;;;;26.80;59.30;;;;;;4922036;29;20287;-88
2022/08/15 04:21:15;;;;;;;;;;;26.80;59.70;;;;;;4923670;29;19921;-87
2022/08/15 04:23:41;;;;;;;;;;;26.80;59.90;;;;;;4924742;29;19915;-88
2022/08/15 04:26:07;;;;;;;;;;;26.80;59.40;;;;;;4922467;29;19965;-87
2022/08/15 04:28:32;;;;;;;;;;;26.80;58.90;;;;;;4940674;29;20360;-88
2022/08/15 04:30:59;;;;;;;;;;;26.90;58.20;;;;;;4940675;29;19965;-87
2022/08/15 04:33:29;;;;;;;;;;;26.90;58.20;;;;;;4936871;29;19919;-88
2022/08/15 04:35:55;;;;;;;;;;;27.00;58.60;;;;;;4939260;29;19923;-87
2022/08/15 04:38:21;;;;;;;;;;;27.00;57.90;;;;;;4936326;29;19929;-88
2022/08/15 04:40:47;;;;;;;;;;;27.00;57.40;;;;;;4921843;29;19918;-88
2022/08/15 04:43:12;;;;;;;;;;;27.00;57.50;;;;;;4935196;29;19919;-88
2022/08/15 04:45:40;;;;;;;;;;;27.00;57.20;;;;;;4923206;29;20638;-88
2022/08/15 04:48:05;;;;;;;;;;;27.00;57.60;;;;;;4923819;29;19915;-87
2022/08/15 04:50:32;;;;;;;;;;;27.00;57.80;;;;;;4922151;29;19969;-87
2022/08/15 04:52:59;;;;;;;;;;;27.00;57.50;;;;;;4923722;29;19914;-88
2022/08/15 04:55:25;;;;;;;;;;;27.00;57.60;;;;;;4948538;29;19930;-88
2022/08/15 04:57:52;;;;;;;;;;;27.00;57.80;;;;;;4945158;29;19915;-88
2022/08/15 05:00:19;;;;;;;;;;;27.10;57.80;;;;;;4944768;29;19922;-88
2022/08/15 05:02:57;;;;;;;;;;;27.10;57.50;;;;;;4947264;29;20389;-87
2022/08/15 05:05:23;;;;;;;;;;;27.10;57.40;;;;;;4941571;29;19919;-87
2022/08/15 05:07:48;;;;;;;;;;;27.00;57.60;;;;;;4946421;29;20308;-88
2022/08/15 05:10:14;;;;;;;;;;;27.00;57.70;;;;;;4945287;29;20025;-87
2022/08/15 05:12:40;;;;;;;;;;;27.10;57.30;;;;;;4947500;29;19910;-88
2022/08/15 05:15:06;;;;;;;;;;;27.00;57.10;;;;;;4947055;29;20405;-87
2022/08/15 05:17:32;;;;;;;;;;;27.00;57.30;;;;;;4950695;28;20034;-87
2022/08/15 05:19:58;;;;;;;;;;;27.10;57.40;;;;;;4925251;29;19926;-88
2022/08/15 05:22:24;;;;;;;;;;;27.10;57.10;;;;;;4944244;29;19919;-88
2022/08/15 05:24:49;;;;;;;;;;;27.20;57.30;;;;;;4931123;29;20065;-88
2022/08/15 05:27:14;;;;;;;;;;;27.30;57.60;;;;;;4933257;29;20624;-88
2022/08/15 05:29:41;;;;;;;;;;;27.30;57.40;;;;;;4945803;28;20439;-88
2022/08/15 05:32:07;;;;;;;;;;;27.40;57.40;;;;;;4942783;29;20355;-88
2022/08/15 05:34:32;;;;;;;;;;;27.50;56.90;;;;;;4942588;29;19926;-88
2022/08/15 05:36:58;;;;;;;;;;;27.60;56.90;;;;;;4948598;29;19938;-87
2022/08/15 05:39:24;;;;;;;;;;;27.70;56.70;;;;;;4949277;29;20383;-88
2022/08/15 05:42:05;;;;;;;;;;;27.70;56.70;;;;;;4947292;29;20279;-88
2022/08/15 05:44:36;;;;;;;;;;;27.80;56.60;;;;;;4944277;29;20002;-88
2022/08/15 05:47:08;;;;;;;;;;;27.80;56.50;;;;;;4953963;29;19938;-88
2022/08/15 05:49:41;;;;;;;;;;;27.90;56.40;;;;;;4951343;29;20013;-88
2022/08/15 05:52:22;;;;;;;;;;;27.90;56.40;;;;;;4944761;29;20005;-88
2022/08/15 05:54:57;;;;;;;;;;;28.00;56.50;;;;;;4942529;29;19919;-88
2022/08/15 05:57:33;;;;;;;;;;;28.00;56.10;;;;;;4946415;29;19918;-88
2022/08/15 06:00:00;;;;;;;;;;;28.00;55.80;;;;;;4933541;29;20397;-91
2022/08/15 06:02:35;;;;;;;;;;;28.10;55.90;;;;;;4936886;29;19932;-86
2022/08/15 06:05:04;;;;;;;;;;;28.10;55.80;;;;;;4927263;29;19923;-88
2022/08/15 06:07:30;;;;;;;;;;;28.20;55.70;;;;;;4944623;29;20033;-88
2022/08/15 06:10:01;;;;;;;;;;;28.30;55.30;;;;;;4943169;29;19927;-88
2022/08/15 06:12:33;;;;;;;;;;;28.30;54.60;;;;;;4922929;29;19925;-88
2022/08/15 06:15:03;;;;;;;;;;;28.40;54.30;;;;;;4946620;29;19919;-88
2022/08/15 06:17:33;;;;;;;;;;;28.60;54.10;;;;;;4939079;29;19923;-88
2022/08/15 06:20:00;;;;;;;;;;;28.90;53.60;;;;;;4949081;29;19923;-88
2022/08/15 06:22:29;;;;;;;;;;;29.30;53.50;;;;;;4949276;29;19915;-88
2022/08/15 06:25:02;;;;;;;;;;;29.80;54.10;;;;;;4940506;29;19923;-88
2022/08/15 06:27:27;;;;;;;;;;;30.50;53.90;;;;;;4944620;29;20010;-88
2022/08/15 06:29:59;;;;;;;;;;;31.30;53.50;;;;;;4939023;29;20048;-88
2022/08/15 06:32:40;;;;;;;;;;;32.10;53.80;;;;;;4945367;29;20307;-88
2022/08/15 06:35:15;;;;;;;;;;;33.00;52.90;;;;;;4920949;29;19923;-88
2022/08/15 06:37:52;;;;;;;;;;;33.90;50.50;;;;;;4922111;29;19949;-85
2022/08/15 06:40:24;;;;;;;;;;;34.60;48.80;;;;;;4939704;29;20009;-88
2022/08/15 06:42:49;;;;;;;;;;;35.20;46.10;;;;;;4940175;29;19973;-88
2022/08/15 06:45:26;;;;;;;;;;;35.40;44.60;;;;;;4946442;29;19973;-87
2022/08/15 06:47:54;;;;;;;;;;;35.70;43.30;;;;;;4944593;29;19915;-86
2022/08/15 06:50:23;;;;;;;;;;;36.10;42.80;;;;;;4944034;29;19986;-86
2022/08/15 06:52:51;;;;;;;;;;;36.30;42.00;;;;;;4939682;29;19968;-86
2022/08/15 06:55:17;;;;;;;;;;;36.60;41.90;;;;;;4936220;29;19954;-87
2022/08/15 06:57:51;;;;;;;;;;;37.10;42.10;;;;;;4931310;29;19957;-86
2022/08/15 07:00:36;;;;;;;;;;;37.70;42.30;;;;;;4946928;29;19922;-87
2022/08/15 07:03:20;;;;;;;;;;;38.30;41.80;;;;;;4943486;29;20295;-87
2022/08/15 07:05:47;;;;;;;;;;;38.90;39.00;;;;;;4943881;29;20360;-86
2022/08/15 07:08:24;;;;;;;;;;;39.60;37.60;;;;;;4944731;29;19937;-87
2022/08/15 07:10:55;;;;;;;;;;;40.20;36.80;;;;;;4941939;29;19923;-86
2022/08/15 07:13:25;;;;;;;;;;;40.80;36.20;;;;;;4946468;29;20368;-86
2022/08/15 07:16:07;;;;;;;;;;;41.20;34.10;;;;;;4934438;29;19954;-86
2022/08/15 07:18:41;;;;;;;;;;;41.60;33.30;;;;;;4944894;29;20268;-86
2022/08/15 07:21:12;;;;;;;;;;;41.90;31.50;;;;;;4922779;29;19929;-86
2022/08/15 07:24:13;;;;;;;;;;;42.30;31.60;;;;;;4948237;29;19970;-86
2022/08/15 07:26:46;;;;;;;;;;;42.70;30.20;;;;;;4907992;29;19977;-85
2022/08/15 07:29:24;;;;;;;;;;;43.10;29.60;;;;;;4944576;29;19910;-86
2022/08/15 07:31:50;;;;;;;;;;;43.40;29.60;;;;;;4935842;29;19895;-87
2022/08/15 07:34:19;;;;;;;;;;;43.90;29.10;;;;;;4920567;29;19918;-87
2022/08/15 07:36:55;;;;;;;;;;;44.30;28.20;;;;;;4943233;29;19951;-86
2022/08/15 07:39:27;;;;;;;;;;;44.90;28.10;;;;;;4946128;29;19982;-86
2022/08/15 07:41:53;;;;;;;;;;;45.40;27.50;;;;;;4923570;29;19942;-88
2022/08/15 07:44:18;;;;;;;;;;;46.00;26.00;;;;;;4941810;28;19925;-87
2022/08/15 07:47:10;;;;;;;;;;;46.20;23.80;;;;;;4942494;29;20284;-87
2022/08/15 07:49:37;;;;;;;;;;;46.00;22.20;;;;;;4939186;29;19930;-87
2022/08/15 07:52:20;;;;;;;;;;;45.60;21.50;;;;;;4943133;29;20328;-87
2022/08/15 07:54:51;;;;;;;;;;;45.30;21.20;;;;;;4944047;29;20042;-87
2022/08/15 07:57:21;;;;;;;;;;;45.20;21.20;;;;;;4948790;29;19919;-87
2022/08/15 08:00:04;;;;;;;;;;;45.30;21.50;;;;;;4945260;29;20006;-87
2022/08/15 08:02:32;;;;;;;;;;;45.30;20.70;;;;;;4941948;29;19957;-87
2022/08/15 08:05:00;;;;;;;;;;;45.50;20.40;;;;;;4947060;29;20196;-88
2022/08/15 08:07:31;;;;;;;;;;;45.40;20.10;;;;;;4944585;29;19941;-87
2022/08/15 08:10:20;;;;;;;;;;;45.10;20.00;;;;;;4956159;29;19932;-87
2022/08/15 08:12:46;;;;;;;;;;;45.10;20.40;;;;;;4927840;29;19925;-87
2022/08/15 08:15:19;;;;;;;;;;;45.00;20.60;;;;;;4947263;29;19922;-87
2022/08/15 08:17:47;;;;;;;;;;;44.90;20.10;;;;;;4915478;29;19965;-88
2022/08/15 08:20:29;;;;;;;;;;;44.80;20.20;;;;;;4925671;29;19958;-87
2022/08/15 08:22:55;;;;;;;;;;;44.70;20.00;;;;;;4928447;29;19962;-88
2022/08/15 08:25:23;;;;;;;;;;;44.70;20.10;;;;;;4944142;29;19930;-87
2022/08/15 08:28:01;;;;;;;;;;;44.70;19.90;;;;;;4949773;29;20012;-88
2022/08/15 08:30:34;;;;;;;;;;;44.70;19.90;;;;;;4944760;29;19926;-87
2022/08/15 08:33:10;;;;;;;;;;;44.70;20.00;;;;;;4934826;29;20394;-87
2022/08/15 08:35:39;;;;;;;;;;;44.50;19.20;;;;;;4924368;29;19919;-88
2022/08/15 08:38:16;;;;;;;;;;;44.10;19.10;;;;;;4925269;29;19919;-88
2022/08/15 08:43:39;;;;;;;;;;;43.70;20.10;;;;;;4942273;29;19928;-87
2022/08/15 08:46:14;;;;;;;;;;;43.80;20.40;;;;;;4943239;29;19918;-87
2022/08/15 08:48:49;;;;;;;;;;;44.00;20.50;;;;;;4946115;29;19915;-87
2022/08/15 08:51:17;;;;;;;;;;;44.30;20.40;;;;;;4945969;28;20014;-88
2022/08/15 08:54:02;;;;;;;;;;;44.90;20.40;;;;;;4948530;29;19915;-88
2022/08/15 08:56:30;;;;;;;;;;;45.50;20.00;;;;;;4938202;29;19958;-88
2022/08/15 08:59:19;;;;;;;;;;;46.00;19.50;;;;;;4940816;29;19914;-87
2022/08/15 09:02:12;;;;;;;;;;;46.60;19.70;;;;;;4921447;29;19922;-88
2022/08/15 09:04:50;;;;;;;;;;;47.30;19.50;;;;;;4938992;29;19926;-88
2022/08/15 09:07:39;;;;;;;;;;;47.90;18.90;;;;;;4937092;29;19925;-88
2022/08/15 09:10:07;;;;;;;;;;;48.30;18.70;;;;;;4936565;29;19923;-87
2022/08/15 09:15:24;;;;;;;;;;;48.90;17.80;;;;;;4936608;29;21159;-88
2022/08/15 09:17:52;;;;;;;;;;;49.00;17.70;;;;;;4944192;29;19967;-87
2022/08/15 09:20:25;;;;;;;;;;;49.10;17.90;;;;;;4941213;29;19922;-87
2022/08/15 09:22:51;;;;;;;;;;;49.20;17.70;;;;;;4947292;29;19910;-88
2022/08/15 09:25:17;;;;;;;;;;;49.30;17.60;;;;;;4937970;29;19930;-88
2022/08/15 09:27:46;;;;;;;;;;;49.40;17.80;;;;;;4933903;29;19926;-88
2022/08/15 09:30:12;;;;;;;;;;;49.60;17.70;;;;;;4922204;29;20383;-89
2022/08/15 09:32:56;;;;;;;;;;;49.70;17.70;;;;;;4924233;29;19960;-89
2022/08/15 09:35:32;;;;;;;;;;;49.60;17.30;;;;;;4942429;29;19923;-89
2022/08/15 09:38:00;;;;;;;;;;;49.40;17.30;;;;;;4923744;29;19915;-88
2022/08/15 09:40:32;;;;;;;;;;;49.00;16.70;;;;;;4925619;29;19927;-89
2022/08/15 09:43:10;;;;;;;;;;;48.60;16.90;;;;;;4938757;29;20363;-88
2022/08/15 09:45:55;;;;;;;;;;;48.20;17.20;;;;;;4942135;29;20001;-89
2022/08/15 09:48:34;;;;;;;;;;;48.00;17.40;;;;;;4925269;29;19950;-89
2022/08/15 09:51:13;;;;;;;;;;;47.90;17.60;;;;;;4939599;29;19926;-88
2022/08/15 09:53:48;;;;;;;;;;;47.80;17.70;;;;;;4918030;29;19970;-89
2022/08/15 09:56:17;;;;;;;;;;;47.70;17.70;;;;;;4922193;29;20017;-91
2022/08/15 09:59:11;;;;;;;;;;;47.60;17.30;;;;;;4916943;29;20383;-89
2022/08/15 10:01:45;;;;;;;;;;;47.20;17.30;;;;;;4911903;29;19931;-88
2022/08/15 10:04:12;;;;;;;;;;;47.00;17.50;;;;;;4922275;29;19920;-90
2022/08/15 10:06:58;;;;;;;;;;;46.70;17.30;;;;;;4925827;29;19914;-91
2022/08/15 10:09:33;;;;;;;;;;;46.80;17.50;;;;;;4949452;29;20371;-91
2022/08/15 10:12:07;;;;;;;;;;;46.90;17.40;;;;;;4946556;29;19915;-92
2022/08/15 10:14:48;;;;;;;;;;;46.60;17.10;;;;;;4944745;29;19915;-92
2022/08/15 10:17:23;;;;;;;;;;;45.90;17.10;;;;;;4942084;29;20287;-92
2022/08/15 10:19:49;;;;;;;;;;;45.40;17.40;;;;;;4921892;29;19919;-90
2022/08/15 10:22:17;;;;;;;;;;;44.90;17.60;;;;;;4944943;29;19926;-89
2022/08/15 10:24:42;;;;;;;;;;;44.40;17.90;;;;;;4947053;29;19918;-88
2022/08/15 10:27:09;;;;;;;;;;;43.90;18.30;;;;;;4920524;29;19922;-90
2022/08/15 10:29:36;;;;;;;;;;;43.40;18.70;;;;;;4943847;29;19915;-87
2022/08/15 10:32:03;;;;;;;;;;;43.00;19.20;;;;;;4922009;29;19947;-89
2022/08/15 10:34:37;;;;;;;;;;;42.50;19.70;;;;;;4939793;29;19919;-87
2022/08/15 10:37:15;;;;;;;;;;;41.90;20.40;;;;;;4935361;29;20353;-88
2022/08/15 10:39:55;;;;;;;;;;;41.50;20.80;;;;;;4936969;29;20021;-91
2022/08/15 10:42:42;;;;;;;;;;;41.10;21.10;;;;;;4941434;29;19923;-89
2022/08/15 10:45:34;;;;;;;;;;;40.70;21.30;;;;;;4939693;29;19926;-83
2022/08/15 10:48:10;;;;;;;;;;;40.10;22.00;;;;;;4937241;29;19927;-88
2022/08/15 10:51:02;;;;;;;;;;;39.40;22.50;;;;;;4925148;29;19911;-86
2022/08/15 10:53:34;;;;;;;;;;;38.90;22.80;;;;;;4931175;29;19966;-88
2022/08/15 10:56:14;;;;;;;;;;;38.20;23.30;;;;;;4928556;29;19921;-88
2022/08/15 10:58:40;;;;;;;;;;;37.80;23.60;;;;;;4913051;29;19977;-87
2022/08/15 11:01:11;;;;;;;;;;;37.30;24.10;;;;;;4932435;29;20054;-87
2022/08/15 11:03:43;;;;;;;;;;;36.70;24.60;;;;;;4918177;29;19918;-87
2022/08/15 11:06:13;;;;;;;;;;;36.30;25.20;;;;;;4916495;29;20007;-87
2022/08/15 11:08:46;;;;;;;;;;;35.80;25.70;;;;;;4931198;29;19923;-87
2022/08/15 11:11:12;;;;;;;;;;;35.30;26.20;;;;;;4912578;29;20398;-86
2022/08/15 11:13:37;;;;;;;;;;;34.80;31.50;;;;;;4908466;29;19918;-84
2022/08/15 11:16:14;;;;;;;;;;;33.20;43.30;;;;;;4914479;29;19918;-85
2022/08/15 11:18:44;;;;;;;;;;;31.70;48.90;;;;;;4931478;29;19922;-85
2022/08/15 11:21:28;;;;;;;;;;;30.60;52.10;;;;;;4915826;29;19961;-92
2022/08/15 11:23:59;;;;;;;;;;;29.40;53.00;;;;;;4922397;29;20287;-91
2022/08/15 11:26:27;;;;;;;;;;;28.40;55.90;;;;;;4922656;29;20733;-90
2022/08/15 11:29:10;;;;;;;;;;;27.70;57.60;;;;;;4923634;29;19923;-91
2022/08/15 11:31:56;;;;;;;;;;;27.20;59.80;;;;;;4922493;29;19913;-92
2022/08/15 11:34:24;;;;;;;;;;;26.80;61.30;;;;;;4941854;29;19929;-93
2022/08/15 11:36:51;;;;;;;;;;;26.50;62.60;;;;;;4926604;29;20012;-92
2022/08/15 11:39:27;;;;;;;;;;;26.40;63.30;;;;;;4943716;29;19919;-91
2022/08/15 11:41:55;;;;;;;;;;;26.30;64.00;;;;;;4924624;29;19922;-91
2022/08/15 11:44:25;;;;;;;;;;;26.20;64.50;;;;;;4922947;29;20379;-91
2022/08/15 11:46:51;;;;;;;;;;;26.20;64.70;;;;;;4924035;29;19915;-91
2022/08/15 11:49:29;;;;;;;;;;;26.20;64.70;;;;;;4944339;29;20011;-93
2022/08/15 11:51:59;;;;;;;;;;;26.10;65.30;;;;;;4927669;29;19933;-93
2022/08/15 11:54:24;;;;;;;;;;;26.00;65.70;;;;;;4928252;29;20059;-92
2022/08/15 11:56:52;;;;;;;;;;;25.90;65.70;;;;;;4927281;29;19970;-91
2022/08/15 11:59:23;;;;;;;;;;;25.90;65.90;;;;;;4941985;29;19915;-91
2022/08/15 12:02:02;;;;;;;;;;;25.90;66.20;;;;;;4926327;29;19926;-91
2022/08/15 12:04:28;;;;;;;;;;;25.90;66.40;;;;;;4944983;29;19922;-91
2022/08/15 12:06:55;;;;;;;;;;;25.90;66.70;;;;;;4929724;29;19986;-92
2022/08/15 12:09:26;;;;;;;;;;;26.00;66.70;;;;;;4929748;29;19930;-90
2022/08/15 12:11:52;;;;;;;;;;;26.10;66.70;;;;;;4932931;29;20013;-90
2022/08/15 12:14:25;;;;;;;;;;;26.10;66.00;;;;;;4929200;29;19938;-90
2022/08/15 12:16:53;;;;;;;;;;;26.00;65.40;;;;;;4945857;29;19942;-91
2022/08/15 12:19:27;;;;;;;;;;;26.00;65.50;;;;;;4929606;29;20324;-90
2022/08/15 12:21:52;;;;;;;;;;;26.00;66.30;;;;;;4943042;29;19919;-90
2022/08/15 12:24:28;;;;;;;;;;;26.00;66.50;;;;;;4943465;29;22329;-91
2022/08/15 12:26:57;;;;;;;;;;;26.10;67.00;;;;;;4942743;29;19919;-90
2022/08/15 12:29:23;;;;;;;;;;;26.30;67.20;;;;;;4925013;29;19977;-91
2022/08/15 12:32:01;;;;;;;;;;;26.40;66.80;;;;;;4929208;29;19918;-93
2022/08/15 12:34:31;;;;;;;;;;;26.50;66.60;;;;;;4939522;29;20808;-91
2022/08/15 12:37:09;;;;;;;;;;;26.60;66.40;;;;;;4930940;29;19927;-91
2022/08/15 12:39:42;;;;;;;;;;;26.80;67.00;;;;;;4941580;29;19915;-91
2022/08/15 12:42:10;;;;;;;;;;;26.90;67.40;;;;;;4927479;29;19955;-91
2022/08/15 12:44:37;;;;;;;;;;;27.00;67.70;;;;;;4944344;29;19918;-91
2022/08/15 12:47:03;;;;;;;;;;;27.30;67.40;;;;;;4940949;29;19923;-91
2022/08/15 12:49:29;;;;;;;;;;;27.50;67.40;;;;;;4942418;29;19923;-91
2022/08/15 12:51:54;;;;;;;;;;;27.80;67.80;;;;;;4928275;29;19919;-91
2022/08/15 12:54:20;;;;;;;;;;;28.20;68.10;;;;;;4926978;29;20569;-90
2022/08/15 12:56:45;;;;;;;;;;;28.60;67.90;;;;;;4941180;29;20559;-90
2022/08/15 12:59:11;;;;;;;;;;;28.90;67.70;;;;;;4939849;29;21066;-91
2022/08/15 13:01:40;;;;;;;;;;;29.30;66.90;;;;;;4923247;29;19919;-91
2022/08/15 13:04:07;;;;;;;;;;;29.50;67.10;;;;;;4941055;29;20611;-90
2022/08/15 13:06:40;;;;;;;;;;;29.70;67.20;;;;;;4939090;29;19943;-90
2022/08/15 13:09:06;;;;;;;;;;;30.00;67.30;;;;;;4925138;29;20438;-90
2022/08/15 13:11:32;;;;;;;;;;;30.30;67.30;;;;;;4923958;29;19974;-90
2022/08/15 13:13:57;;;;;;;;;;;30.60;67.10;;;;;;4924246;29;19926;-90
2022/08/15 13:16:25;;;;;;;;;;;30.90;66.80;;;;;;4923107;29;20026;-90
2022/08/15 13:18:51;;;;;;;;;;;31.20;66.40;;;;;;4935813;29;20307;-89
2022/08/15 13:24:01;;;;;;;;;;;31.70;65.70;;;;;;4937548;29;19953;-90
2022/08/15 13:26:31;;;;;;;;;;;31.80;65.60;;;;;;4917693;29;19927;-90
2022/08/15 13:29:00;;;;;;;;;;;32.00;65.50;;;;;;4932174;29;20383;-90
2022/08/15 13:31:32;;;;;;;;;;;32.20;65.60;;;;;;4938188;29;20386;-90
2022/08/15 13:33:59;;;;;;;;;;;32.30;65.40;;;;;;4934918;29;20555;-90
2022/08/15 13:36:26;;;;;;;;;;;32.40;65.20;;;;;;4932762;29;19933;-89
2022/08/15 13:38:53;;;;;;;;;;;32.50;64.80;;;;;;4919243;29;19918;-89
2022/08/15 13:41:19;;;;;;;;;;;32.70;64.60;;;;;;4934639;29;20668;-88
2022/08/15 13:43:47;;;;;;;;;;;32.80;64.70;;;;;;4932598;29;19974;-89
2022/08/15 13:46:12;;;;;;;;;;;32.90;64.60;;;;;;4935340;29;19914;-88
2022/08/15 13:48:41;;;;;;;;;;;33.20;64.50;;;;;;4918537;29;19919;-89
2022/08/15 13:51:11;;;;;;;;;;;33.30;64.20;;;;;;4919638;29;19919;-89
2022/08/15 13:53:37;;;;;;;;;;;33.50;64.10;;;;;;4919115;29;19963;-89
2022/08/15 13:56:04;;;;;;;;;;;33.60;63.90;;;;;;4935940;29;19950;-89
2022/08/15 13:58:29;;;;;;;;;;;33.80;63.70;;;;;;4936816;29;20442;-88
2022/08/15 14:00:55;;;;;;;;;;;33.90;63.60;;;;;;4935458;29;19947;-88
2022/08/15 14:03:22;;;;;;;;;;;34.00;63.60;;;;;;4934643;29;20019;-89
2022/08/15 14:05:47;;;;;;;;;;;34.10;63.50;;;;;;4915164;29;19915;-88
2022/08/15 14:08:21;;;;;;;;;;;34.10;63.30;;;;;;4936401;29;19974;-89
2022/08/15 14:10:47;;;;;;;;;;;34.20;63.60;;;;;;4933577;29;19957;-88
2022/08/15 14:13:13;;;;;;;;;;;34.20;63.50;;;;;;4933877;29;19966;-89
2022/08/15 14:15:38;;;;;;;;;;;34.00;61.60;;;;;;4916259;29;20006;-88
2022/08/15 14:18:04;;;;;;;;;;;33.80;61.20;;;;;;4919254;29;19922;-88
2022/08/15 14:20:30;;;;;;;;;;;33.60;60.80;;;;;;4935506;29;20265;-89
2022/08/15 14:22:56;;;;;;;;;;;33.30;60.60;;;;;;4918528;29;19919;-88
2022/08/15 14:25:22;;;;;;;;;;;33.30;61.20;;;;;;4921707;29;19974;-90
2022/08/15 14:27:50;;;;;;;;;;;33.10;60.30;;;;;;4936823;29;19950;-89
2022/08/15 14:30:23;;;;;;;;;;;33.00;61.50;;;;;;4923131;29;19999;-92
2022/08/15 14:33:11;;;;;;;;;;;32.90;60.70;;;;;;4926451;29;19919;-90
2022/08/15 14:35:37;;;;;;;;;;;32.80;61.40;;;;;;4918223;29;20652;-91
2022/08/15 14:38:03;;;;;;;;;;;32.80;62.20;;;;;;4925520;29;19943;-91
2022/08/15 14:40:32;;;;;;;;;;;32.80;61.30;;;;;;4922330;29;19911;-92
2022/08/15 14:43:00;;;;;;;;;;;32.70;60.00;;;;;;4921252;29;19942;-91
2022/08/15 14:45:27;;;;;;;;;;;32.70;59.30;;;;;;4923543;29;19922;-91
2022/08/15 14:47:58;;;;;;;;;;;32.60;60.00;;;;;;4922365;29;19926;-95